Time;durP1;ratioP1;P1;durP2;ratioP2;P2;SDS_P1;SDS_P2;PMS_P1;PMS_P2;Temp;Humidity;BMP_temperature;BMP_pressure;BME280_temperature;BME280_humidity;BME280_pressure;Samples;Min_cycle;Max_cycle;Signal;HPM_P1;HPM_P2
2023/05/22 00:03:42;;;;;;;5.85;5.28;;;;;;;19.97;55.37;96825.78;10397270;28;20405;-48
2023/05/22 00:09:02;;;;;;;7.00;5.32;;;;;;;19.96;55.31;96827.69;10413034;28;20482;-47
2023/05/22 00:14:21;;;;;;;6.03;5.28;;;;;;;19.96;55.34;96819.56;10425788;28;20037;-49
2023/05/22 00:19:41;;;;;;;5.80;5.18;;;;;;;19.95;55.35;96828.78;10426218;28;20042;-50
2023/05/22 00:25:04;;;;;;;5.47;4.97;;;;;;;19.95;55.38;96818.78;10425661;28;20052;-48
2023/05/22 00:30:24;;;;;;;5.78;4.97;;;;;;;19.95;55.29;96826.09;10425269;28;20044;-48
2023/05/22 00:35:43;;;;;;;5.65;5.07;;;;;;;19.95;55.30;96824.19;10425354;28;20452;-47
2023/05/22 00:41:05;;;;;;;5.90;5.30;;;;;;;19.95;55.35;96829.59;10425553;28;20042;-47
2023/05/22 00:46:24;;;;;;;5.82;5.20;;;;;;;19.95;55.42;96829.59;10393479;28;20038;-49
2023/05/22 00:51:44;;;;;;;5.80;5.22;;;;;;;19.95;55.41;96818.78;10385716;28;20057;-50
2023/05/22 00:57:04;;;;;;;5.70;5.20;;;;;;;19.94;55.50;96819.91;10420065;28;20099;-49
2023/05/22 01:02:24;;;;;;;6.28;5.10;;;;;;;19.94;55.32;96821.81;10432737;28;20683;-47
2023/05/22 01:07:46;;;;;;;5.65;4.78;;;;;;;19.95;55.33;96821.50;10416854;28;20406;-47
2023/05/22 01:13:18;;;;;;;5.55;5.00;;;;;;;19.94;55.47;96819.09;10397837;28;20142;-47
2023/05/22 01:18:44;;;;;;;6.15;5.32;;;;;;;19.94;55.33;96819.09;10403875;28;20041;-48
2023/05/22 01:24:19;;;;;;;6.00;4.90;;;;;;;19.94;55.32;96819.91;10411601;28;20049;-47
2023/05/22 01:30:23;;;;;;;5.03;4.53;;;;;;;19.94;55.42;96825.31;10423039;28;20037;-49
2023/05/22 01:35:46;;;;;;;5.28;4.88;;;;;;;19.93;55.37;96829.13;10252478;28;20570;-48
2023/05/22 01:41:06;;;;;;;5.18;4.78;;;;;;;19.92;55.46;96821.34;10406321;28;20045;-46
2023/05/22 01:46:27;;;;;;;4.97;4.47;;;;;;;19.93;55.41;96825.63;10431017;28;20045;-48
2023/05/22 01:51:52;;;;;;;4.90;4.50;;;;;;;19.92;55.48;96824.84;10379809;28;20112;-49
2023/05/22 01:57:20;;;;;;;5.03;4.53;;;;;;;19.93;55.41;96823.72;10393818;28;20038;-46
2023/05/22 02:02:43;;;;;;;4.87;4.47;;;;;;;19.92;55.33;96824.06;10387970;28;20103;-50
2023/05/22 02:08:03;;;;;;;5.20;4.70;;;;;;;19.92;55.44;96822.13;10383426;28;20296;-48
2023/05/22 02:13:23;;;;;;;5.00;4.57;;;;;;;19.92;55.48;96810.53;10417035;28;20041;-46
2023/05/22 02:18:43;;;;;;;4.85;4.45;;;;;;;19.91;55.43;96815.13;10392572;28;20038;-50
2023/05/22 02:24:02;;;;;;;5.13;4.63;;;;;;;19.90;55.43;96810.84;10407248;28;20050;-49
2023/05/22 02:29:22;;;;;;;5.25;4.78;;;;;;;19.91;55.46;96803.53;10416600;28;20053;-49
2023/05/22 02:34:42;;;;;;;5.32;4.80;;;;;;;19.91;55.37;96800.81;10393745;28;20041;-48
2023/05/22 02:40:05;;;;;;;4.60;4.20;;;;;;;19.90;55.41;96789.22;10394298;28;20491;-48
2023/05/22 02:45:25;;;;;;;4.97;4.53;;;;;;;19.90;55.33;96796.56;10414373;28;20049;-51
2023/05/22 02:50:47;;;;;;;4.80;4.40;;;;;;;19.89;55.15;96794.94;10421124;28;20057;-47
2023/05/22 02:56:09;;;;;;;5.30;4.60;;;;;;;19.90;55.41;96789.22;10406859;28;20493;-50
2023/05/22 03:01:29;;;;;;;4.40;4.00;;;;;;;19.89;55.39;96787.63;10415023;28;20049;-50
2023/05/22 03:06:49;;;;;;;4.38;3.97;;;;;;;19.89;55.33;96786.84;10428479;28;20052;-50
2023/05/22 03:12:09;;;;;;;4.95;4.13;;;;;;;19.89;55.35;96787.63;10414864;28;20038;-46
2023/05/22 03:17:28;;;;;;;4.78;4.38;;;;;;;19.88;55.40;96799.56;10428060;28;20041;-48
2023/05/22 03:22:47;;;;;;;4.45;4.05;;;;;;;19.89;55.32;96803.84;10427268;28;20042;-47
2023/05/22 03:28:07;;;;;;;4.72;4.30;;;;;;;19.88;55.32;96794.16;10425319;28;20034;-48
2023/05/22 03:33:30;;;;;;;4.70;4.30;;;;;;;19.88;55.41;96799.56;10426288;28;20486;-49
2023/05/22 03:38:50;;;;;;;4.85;4.35;;;;;;;19.88;55.34;96788.75;10424108;28;20494;-48
2023/05/22 03:44:10;;;;;;;4.57;4.18;;;;;;;19.87;55.39;96789.88;10386916;28;20045;-49
2023/05/22 03:49:29;;;;;;;4.80;4.32;;;;;;;19.87;55.29;96787.16;10395386;28;20501;-47
2023/05/22 03:54:50;;;;;;;5.13;4.63;;;;;;;19.87;55.46;96787.16;10386683;28;20401;-48
2023/05/22 04:00:11;;;;;;;4.72;4.32;;;;;;;19.87;55.33;96781.75;10386319;28;20050;-49
2023/05/22 04:05:33;;;;;;;4.78;3.95;;;;;;;19.89;55.34;96784.13;10413727;28;20433;-50
2023/05/22 04:10:53;;;;;;;4.88;4.47;;;;;;;19.91;55.61;96784.59;10402486;28;20038;-57
2023/05/22 04:16:16;;;;;;;4.25;3.85;;;;;;;19.91;56.08;96777.28;10385830;28;20057;-56
2023/05/22 04:21:38;;;;;;;4.50;4.10;;;;;;;19.91;55.43;96774.56;10399737;28;20042;-57
2023/05/22 04:26:59;;;;;;;5.38;4.43;;;;;;;19.22;53.29;96780.25;10421955;28;20049;-56
2023/05/22 04:32:20;;;;;;;5.22;4.72;;;;;;;18.73;54.58;96772.38;10410602;28;20441;-56
2023/05/22 04:37:41;;;;;;;6.00;4.72;;;;;;;18.50;54.69;96774.44;10405250;28;20037;-56
2023/05/22 04:43:00;;;;;;;6.85;4.43;;;;;;;18.45;55.09;96775.41;10406990;28;20045;-56
2023/05/22 04:48:20;;;;;;;5.10;4.60;;;;;;;18.45;56.04;96782.69;10437140;28;20037;-56
2023/05/22 04:53:40;;;;;;;5.15;4.57;;;;;;;18.44;54.97;96770.31;10412096;28;20057;-56
2023/05/22 04:59:00;;;;;;;5.90;4.45;;;;;;;18.46;55.14;96768.88;10426473;28;20509;-56
2023/05/22 05:04:20;;;;;;;7.88;4.68;;;;;;;18.58;55.06;96774.44;10411067;28;20441;-56
2023/05/22 05:09:40;;;;;;;5.85;4.32;;;;;;;18.80;54.44;96764.63;10408988;28;20040;-57
2023/05/22 05:15:00;;;;;;;10.75;4.60;;;;;;;19.00;54.28;96765.06;10398226;28;20441;-56
2023/05/22 05:20:21;;;;;;;7.32;4.07;;;;;;;19.12;54.08;96768.66;10384612;28;20129;-57
2023/05/22 05:25:41;;;;;;;6.50;3.92;;;;;;;19.21;53.99;96762.44;10412172;28;20136;-56
2023/05/22 05:31:01;;;;;;;8.43;4.60;;;;;;;19.28;54.14;96765.47;10398665;28;20045;-57
2023/05/22 05:36:41;;;;;;;10.30;6.15;;;;;;;19.32;54.22;96766.41;10418016;28;20398;-57
2023/05/22 05:42:00;;;;;;;10.80;5.45;;;;;;;19.38;54.43;96770.50;10406213;28;20046;-57
2023/05/22 05:47:22;;;;;;;11.70;5.63;;;;;;;19.39;54.56;96769.41;10393179;28;20402;-56
2023/05/22 05:52:42;;;;;;;16.17;5.72;;;;;;;19.41;54.53;96775.28;10378062;28;20214;-57
2023/05/22 05:58:07;;;;;;;12.07;5.65;;;;;;;19.43;54.58;96767.63;10382582;28;20097;-57
2023/05/22 06:03:39;;;;;;;7.90;5.03;;;;;;;19.46;54.63;96766.19;10389867;28;20045;-57
2023/05/22 06:09:08;;;;;;;10.95;5.30;;;;;;;19.46;54.69;96761.56;10413959;28;20099;-57
2023/05/22 06:14:42;;;;;;;11.50;4.97;;;;;;;19.49;54.74;96766.34;10404774;28;20045;-57
2023/05/22 06:20:05;;;;;;;8.43;4.43;;;;;;;19.49;54.72;96765.53;10414855;28;20406;-57
2023/05/22 06:25:28;;;;;;;8.02;4.30;;;;;;;19.50;54.86;96759.81;10392058;28;20045;-57
2023/05/22 06:30:49;;;;;;;8.93;4.88;;;;;;;19.51;54.85;96761.41;10405013;28;20421;-57
2023/05/22 06:36:11;;;;;;;9.88;5.13;;;;;;;19.53;54.88;96759.16;10408481;28;20099;-57
2023/05/22 06:41:32;;;;;;;9.70;4.35;;;;;;;19.53;54.93;96764.56;10399061;28;20049;-57
2023/05/22 06:46:52;;;;;;;7.90;4.82;;;;;;;19.54;55.01;96755.34;10390451;28;20399;-57
2023/05/22 06:52:16;;;;;;;8.18;5.18;;;;;;;19.55;54.95;96764.25;10390997;28;20061;-57
2023/05/22 06:57:36;;;;;;;7.53;4.47;;;;;;;19.55;55.02;96756.13;10399856;28;20461;-57
2023/05/22 07:02:57;;;;;;;10.82;4.95;;;;;;;19.55;55.01;96762.31;10406850;28;20041;-57
2023/05/22 07:08:26;;;;;;;9.73;5.15;;;;;;;19.55;55.05;96765.03;10392345;28;20050;-57
2023/05/22 07:13:46;;;;;;;6.57;4.40;;;;;;;19.58;55.10;96757.38;10386358;28;20069;-57
2023/05/22 07:19:07;;;;;;;8.65;4.95;;;;;;;19.57;55.28;96762.00;10387273;28;20091;-57
2023/05/22 07:24:27;;;;;;;5.40;4.07;;;;;;;19.57;55.27;96759.31;10378623;28;20054;-57
2023/05/22 07:29:48;;;;;;;8.18;4.80;;;;;;;19.59;55.28;96759.00;10385856;28;20037;-57
2023/05/22 07:35:09;;;;;;;7.13;4.75;;;;;;;19.58;55.34;96750.06;10385395;28;20487;-57
2023/05/22 07:40:29;;;;;;;6.88;4.07;;;;;;;19.59;55.39;96756.28;10385570;28;20042;-57
2023/05/22 07:45:50;;;;;;;7.95;4.78;;;;;;;19.60;55.40;96757.84;10388543;28;20038;-57
2023/05/22 07:51:13;;;;;;;6.18;4.50;;;;;;;19.60;55.44;96755.97;10383004;28;20076;-57
2023/05/22 07:56:38;;;;;;;6.22;4.53;;;;;;;19.61;55.47;96749.44;10385058;28;20096;-57
2023/05/22 08:01:58;;;;;;;6.60;4.32;;;;;;;19.61;55.44;96744.03;10396162;28;20042;-57
2023/05/22 08:07:18;;;;;;;6.40;3.97;;;;;;;19.61;55.53;96751.34;10385757;28;20042;-57
2023/05/22 08:12:37;;;;;;;7.65;4.28;;;;;;;19.61;55.60;96757.53;10375171;28;20065;-57
2023/05/22 08:17:57;;;;;;;5.45;3.67;;;;;;;19.61;55.66;96752.13;10386086;28;20508;-57
2023/05/22 08:23:16;;;;;;;7.25;4.35;;;;;;;19.61;55.62;96745.94;10388629;28;20057;-57
2023/05/22 08:28:36;;;;;;;7.03;4.30;;;;;;;19.61;55.70;96744.03;10399420;28;20045;-57
2023/05/22 08:34:01;;;;;;;5.13;4.00;;;;;;;19.63;55.65;96741.00;10396477;28;20096;-57
2023/05/22 08:39:20;;;;;;;8.38;4.60;;;;;;;19.62;55.69;96742.09;10403271;28;20042;-57
2023/05/22 08:44:40;;;;;;;5.97;4.00;;;;;;;19.63;55.76;96738.31;10412598;28;20091;-57
2023/05/22 08:49:59;;;;;;;6.43;4.35;;;;;;;19.63;55.87;96735.59;10383010;28;20058;-57
2023/05/22 08:55:19;;;;;;;4.65;3.83;;;;;;;19.63;55.82;96724.78;10406984;28;20056;-57
2023/05/22 09:00:39;;;;;;;6.45;4.32;;;;;;;19.63;55.79;96720.16;10391521;28;20453;-57
2023/05/22 09:06:00;;;;;;;6.15;4.10;;;;;;;19.63;55.87;96722.88;10406782;28;20045;-57
2023/05/22 09:11:20;;;;;;;5.90;3.70;;;;;;;19.64;55.94;96719.06;10392209;28;20038;-57
2023/05/22 09:16:47;;;;;;;4.38;3.80;;;;;;;19.64;55.96;96715.53;10395033;28;20052;-57
2023/05/22 09:22:07;;;;;;;6.47;4.07;;;;;;;19.64;55.97;96708.25;10390388;28;20108;-57
2023/05/22 09:27:26;;;;;;;4.82;3.95;;;;;;;19.64;56.01;96707.44;10413773;28;20050;-57
2023/05/22 09:32:49;;;;;;;6.15;4.00;;;;;;;19.64;55.99;96712.84;10401421;28;20068;-57
2023/05/22 09:38:09;;;;;;;5.60;4.00;;;;;;;19.64;56.11;96708.25;10390902;28;20070;-57
2023/05/22 09:43:29;;;;;;;5.10;3.70;;;;;;;19.67;56.00;96712.19;10397482;28;20119;-57
2023/05/22 09:48:51;;;;;;;5.80;3.88;;;;;;;19.66;56.10;96707.91;10390929;28;20058;-56
2023/05/22 09:54:12;;;;;;;5.20;3.60;;;;;;;19.65;56.23;96709.81;10393617;28;20041;-57
2023/05/22 09:59:32;;;;;;;4.53;3.53;;;;;;;19.66;56.13;96702.50;10414097;28;20405;-57
2023/05/22 10:04:53;;;;;;;3.70;3.08;;;;;;;19.66;56.18;96706.00;10390235;28;20422;-57
2023/05/22 10:10:13;;;;;;;5.07;3.58;;;;;;;19.66;56.21;96697.91;10400613;28;20409;-57
2023/05/22 10:15:36;;;;;;;3.85;3.38;;;;;;;19.66;56.20;96694.41;10395397;28;20433;-57
2023/05/22 10:20:59;;;;;;;5.30;3.67;;;;;;;19.65;56.36;96685.50;10421173;28;20050;-57
2023/05/22 10:26:19;;;;;;;4.40;3.72;;;;;;;19.66;56.28;96683.59;10401532;28;20041;-57
2023/05/22 10:32:03;;;;;;;4.10;3.45;;;;;;;19.66;56.43;96687.09;10430367;28;20401;-57
2023/05/22 10:37:47;;;;;;;5.25;3.70;;;;;;;19.67;56.47;96680.56;10405840;28;20398;-57
2023/05/22 10:43:07;;;;;;;4.65;3.63;;;;;;;19.67;56.42;96674.38;10374310;28;20046;-57
2023/05/22 10:48:27;;;;;;;3.83;3.53;;;;;;;19.67;56.36;96669.75;10391236;28;20073;-56
2023/05/22 10:53:57;;;;;;;5.30;3.53;;;;;;;19.67;56.45;96669.75;10418173;28;20056;-57
2023/05/22 10:59:16;;;;;;;5.13;3.78;;;;;;;19.67;56.46;96666.25;10388320;28;20502;-57
2023/05/22 11:04:35;;;;;;;3.90;3.30;;;;;;;19.68;56.36;96651.63;10396662;28;20048;-57
2023/05/22 11:09:59;;;;;;;3.67;3.20;;;;;;;19.67;56.52;96650.03;10374175;28;20053;-57
2023/05/22 11:15:29;;;;;;;4.78;3.20;;;;;;;19.66;56.53;96657.38;10387584;28;20046;-57
2023/05/22 11:20:49;;;;;;;4.35;3.30;;;;;;;19.67;56.49;96647.34;10392781;28;20053;-57
2023/05/22 11:26:21;;;;;;;3.20;2.90;;;;;;;19.66;56.56;96634.94;10399334;28;20046;-57
2023/05/22 11:31:41;;;;;;;5.47;3.83;;;;;;;19.67;56.58;96636.53;10404197;28;20112;-57
2023/05/22 11:37:00;;;;;;;3.40;3.10;;;;;;;19.68;56.61;96643.50;10398784;28;20053;-57
2023/05/22 11:42:20;;;;;;;4.05;3.45;;;;;;;19.67;56.55;96634.63;10396135;28;20056;-57
2023/05/22 11:47:40;;;;;;;3.42;3.08;;;;;;;19.68;56.66;96632.69;10405794;28;20100;-57
2023/05/22 11:53:01;;;;;;;3.67;3.00;;;;;;;19.67;56.63;96631.91;10373837;28;20054;-57
2023/05/22 11:58:26;;;;;;;3.50;3.20;;;;;;;19.68;56.57;96632.69;10391903;28;20387;-57
2023/05/22 12:03:46;;;;;;;3.55;3.25;;;;;;;19.68;56.70;96628.09;10396484;28;20050;-57
2023/05/22 12:09:06;;;;;;;4.07;3.50;;;;;;;19.68;56.66;96621.88;10386002;28;20064;-57
2023/05/22 12:14:27;;;;;;;3.38;2.80;;;;;;;19.67;56.64;96628.44;10391626;28;20061;-57
2023/05/22 12:19:46;;;;;;;3.13;2.67;;;;;;;19.67;56.60;96620.31;10387001;28;20058;-57
2023/05/22 12:25:12;;;;;;;4.05;3.20;;;;;;;19.68;56.70;96611.88;10394141;28;20045;-57
2023/05/22 12:30:40;;;;;;;4.22;2.95;;;;;;;19.68;56.57;96605.66;10396676;28;20042;-57
2023/05/22 12:35:59;;;;;;;3.72;3.20;;;;;;;19.69;56.77;96607.28;10379144;28;20104;-57
2023/05/22 12:41:20;;;;;;;4.18;3.15;;;;;;;19.69;56.90;96604.56;10413128;28;20041;-57
2023/05/22 12:46:39;;;;;;;3.63;2.90;;;;;;;19.70;56.84;96611.56;10404546;28;20042;-57
2023/05/22 12:51:59;;;;;;;3.50;2.95;;;;;;;19.69;57.02;96596.47;10382903;28;20418;-57
2023/05/22 12:57:18;;;;;;;4.22;3.08;;;;;;;19.70;56.89;96595.34;10379894;28;20053;-57
2023/05/22 13:02:38;;;;;;;3.15;2.85;;;;;;;19.70;56.87;96603.47;10392545;28;20533;-57
2023/05/22 13:07:57;;;;;;;2.78;2.58;;;;;;;19.70;56.93;96598.06;10395416;28;20034;-57
2023/05/22 13:13:16;;;;;;;3.13;2.83;;;;;;;19.69;56.93;96580.25;10409689;28;20065;-57
2023/05/22 13:18:36;;;;;;;3.75;3.00;;;;;;;19.70;56.95;96582.63;10394991;28;20049;-57
2023/05/22 13:23:56;;;;;;;3.70;2.90;;;;;;;19.71;57.00;96583.41;10416811;28;20046;-57
2023/05/22 13:29:15;;;;;;;3.40;2.90;;;;;;;19.71;57.01;96572.59;10394580;28;20494;-57
2023/05/22 13:34:34;;;;;;;3.10;2.63;;;;;;;19.72;57.10;96563.41;10391778;28;20510;-57
2023/05/22 13:39:54;;;;;;;3.50;2.80;;;;;;;19.73;57.09;96570.38;10407805;28;20046;-57
2023/05/22 13:45:14;;;;;;;3.05;2.53;;;;;;;19.73;57.18;96570.38;10398885;28;20049;-57
2023/05/22 13:50:33;;;;;;;3.08;2.60;;;;;;;19.73;57.07;96573.09;10387489;28;20050;-57
2023/05/22 13:55:53;;;;;;;3.67;2.80;;;;;;;19.74;57.25;96561.16;10404716;28;20044;-57
2023/05/22 14:01:13;;;;;;;3.22;2.92;;;;;;;19.73;57.13;96559.56;10404224;28;20048;-57
2023/05/22 14:06:32;;;;;;;2.65;2.35;;;;;;;19.75;57.30;96562.72;10396427;28;20046;-57
2023/05/22 14:11:52;;;;;;;2.70;2.50;;;;;;;19.74;57.22;96564.66;10420356;28;20088;-57
2023/05/22 14:17:11;;;;;;;3.85;2.63;;;;;;;19.75;57.21;96554.63;10382645;28;20053;-57
2023/05/22 14:22:31;;;;;;;3.00;2.58;;;;;;;19.75;57.15;96557.31;10392482;28;20064;-57
2023/05/22 14:27:50;;;;;;;3.10;2.80;;;;;;;19.76;57.33;96558.91;10412171;28;20037;-57
2023/05/22 14:33:10;;;;;;;2.90;2.55;;;;;;;19.76;57.34;96553.50;10396928;28;20468;-57
2023/05/22 14:38:33;;;;;;;3.15;2.55;;;;;;;19.76;57.44;96553.50;10408597;28;20498;-57
2023/05/22 14:43:53;;;;;;;3.03;2.55;;;;;;;19.78;57.49;96542.34;10408576;28;20045;-57
2023/05/22 14:49:12;;;;;;;2.55;2.35;;;;;;;19.79;57.45;96544.72;10397496;28;20046;-57
2023/05/22 14:54:32;;;;;;;2.90;2.60;;;;;;;19.81;57.63;96545.19;10391209;28;20049;-57
2023/05/22 14:59:52;;;;;;;3.05;2.83;;;;;;;19.82;57.55;96546.00;10399049;28;20386;-57
2023/05/22 15:05:11;;;;;;;2.78;2.58;;;;;;;19.83;57.58;96542.94;10404514;28;20494;-57
2023/05/22 15:10:31;;;;;;;2.65;2.45;;;;;;;19.83;57.65;96537.53;10424022;28;20042;-57
2023/05/22 15:15:50;;;;;;;2.63;2.42;;;;;;;19.84;57.70;96531.03;10392940;28;20045;-57
2023/05/22 15:21:10;;;;;;;2.78;2.50;;;;;;;19.85;57.67;96535.28;10401780;28;20509;-57
2023/05/22 15:26:30;;;;;;;2.67;2.47;;;;;;;19.86;57.65;96526.06;10400684;28;20052;-57
2023/05/22 15:31:50;;;;;;;2.67;2.47;;;;;;;19.87;57.71;96524.94;10389774;28;20037;-57
2023/05/22 15:37:09;;;;;;;2.50;2.30;;;;;;;19.87;57.77;96508.72;10380013;28;20053;-57
2023/05/22 15:42:29;;;;;;;3.03;2.50;;;;;;;19.89;57.74;96513.78;10389366;28;20042;-57
2023/05/22 15:47:49;;;;;;;2.65;2.42;;;;;;;19.90;57.69;96512.69;10399836;28;20045;-57
2023/05/22 15:53:08;;;;;;;2.60;2.40;;;;;;;19.89;57.82;96514.56;10392885;28;20045;-57
2023/05/22 15:58:29;;;;;;;2.70;2.50;;;;;;;19.88;57.80;96502.19;10386401;28;20038;-57
2023/05/22 16:03:48;;;;;;;2.55;2.35;;;;;;;19.89;57.83;96502.97;10388933;28;20095;-57
2023/05/22 16:09:08;;;;;;;2.53;2.33;;;;;;;19.93;57.89;96490.38;10388424;28;20046;-57
2023/05/22 16:14:28;;;;;;;3.83;2.33;;;;;;;19.94;57.94;96490.03;10387923;28;20482;-58
2023/05/22 16:19:49;;;;;;;3.50;3.05;;;;;;;20.00;57.82;96489.84;10394669;28;20568;-58
2023/05/22 16:25:09;;;;;;;5.45;3.10;;;;;;;20.03;57.76;96492.66;10378029;28;20053;-58
2023/05/22 16:30:29;;;;;;;3.97;3.58;;;;;;;20.08;57.36;96488.97;10386766;28;20054;-58
2023/05/22 16:35:49;;;;;;;4.18;3.78;;;;;;;20.10;57.55;96497.53;10412976;28;20037;-58
2023/05/22 16:41:08;;;;;;;3.97;3.47;;;;;;;20.10;57.24;96490.19;10399436;28;20053;-58
2023/05/22 16:46:27;;;;;;;4.93;4.05;;;;;;;20.10;57.14;96486.69;10385353;28;20096;-58
2023/05/22 16:51:47;;;;;;;3.75;3.28;;;;;;;20.06;57.11;96492.00;10378593;28;20116;-58
2023/05/22 16:57:06;;;;;;;4.03;3.70;;;;;;;20.05;57.19;96493.13;10384857;28;20213;-58
2023/05/22 17:02:25;;;;;;;5.93;3.90;;;;;;;20.06;56.91;96491.22;10385620;28;20050;-58
2023/05/22 17:07:45;;;;;;;6.63;4.05;;;;;;;20.01;56.91;96494.88;10387634;28;20038;-58
2023/05/22 17:13:04;;;;;;;5.45;4.13;;;;;;;20.01;56.92;96489.47;10400358;28;20041;-58
2023/05/22 17:18:24;;;;;;;4.80;4.30;;;;;;;19.98;56.92;96500.97;10372155;28;20081;-58
2023/05/22 17:23:44;;;;;;;5.25;3.75;;;;;;;19.97;56.96;96482.38;10407373;28;20052;-58
2023/05/22 17:29:03;;;;;;;5.85;3.78;;;;;;;19.96;56.65;96492.41;10397774;28;20045;-58
2023/05/22 17:34:23;;;;;;;4.28;3.70;;;;;;;19.94;56.84;96481.94;10410911;28;20046;-58
2023/05/22 17:39:45;;;;;;;7.68;4.25;;;;;;;19.94;56.86;96487.34;10402605;28;20046;-58
2023/05/22 17:45:06;;;;;;;13.43;4.07;;;;;;;19.94;56.96;96479.22;10393807;28;20038;-57
2023/05/22 17:50:25;;;;;;;6.78;4.00;;;;;;;19.94;56.86;96490.03;10411565;28;20057;-58
2023/05/22 17:55:46;;;;;;;6.38;4.35;;;;;;;19.95;57.00;96494.34;10377770;28;20068;-58
2023/05/22 18:01:06;;;;;;;7.78;4.20;;;;;;;19.93;56.91;96493.06;10426135;28;20037;-58
2023/05/22 18:06:25;;;;;;;6.50;4.43;;;;;;;19.93;56.90;96491.19;10402616;28;20045;-58
2023/05/22 18:11:45;;;;;;;7.13;4.35;;;;;;;19.93;56.75;96493.06;10391675;28;20536;-58
2023/05/22 18:17:04;;;;;;;8.55;4.60;;;;;;;19.92;56.80;96491.50;10389558;28;20042;-58
2023/05/22 18:22:24;;;;;;;6.32;4.53;;;;;;;19.92;56.66;96486.09;10391623;28;20053;-58
2023/05/22 18:27:44;;;;;;;5.53;4.50;;;;;;;19.91;56.31;96479.88;10398385;28;20506;-58
2023/05/22 18:33:03;;;;;;;8.75;4.00;;;;;;;19.90;56.06;96483.72;10394555;28;20037;-58
2023/05/22 18:38:23;;;;;;;4.57;3.90;;;;;;;19.89;55.93;96489.47;10407466;28;20041;-58
2023/05/22 18:43:43;;;;;;;6.00;4.10;;;;;;;19.89;55.91;96498.34;10393314;28;20042;-58
2023/05/22 18:49:02;;;;;;;4.60;4.00;;;;;;;19.86;55.84;96501.75;10389724;28;20046;-58
2023/05/22 18:54:22;;;;;;;4.90;3.65;;;;;;;19.87;55.74;96505.22;10391380;28;20045;-58
2023/05/22 18:59:42;;;;;;;6.55;3.42;;;;;;;19.85;55.49;96507.47;10388046;28;20446;-58
2023/05/22 19:05:03;;;;;;;5.78;3.90;;;;;;;19.85;55.50;96502.06;10393918;28;20049;-58
2023/05/22 19:10:22;;;;;;;9.10;3.90;;;;;;;19.83;55.25;96505.09;10401750;28;20046;-58
2023/05/22 19:15:42;;;;;;;7.28;3.78;;;;;;;19.83;54.96;96507.78;10400172;28;20053;-58
2023/05/22 19:21:01;;;;;;;4.60;3.78;;;;;;;19.84;55.20;96517.50;10398636;28;20100;-57
2023/05/22 19:26:21;;;;;;;6.25;3.75;;;;;;;19.85;55.34;96513.66;10417374;28;20045;-58
2023/05/22 19:31:40;;;;;;;5.95;3.47;;;;;;;19.86;55.49;96515.25;10400307;28;20038;-57
2023/05/22 19:36:59;;;;;;;5.78;3.13;;;;;;;19.86;55.55;96526.06;10397932;28;20085;-58
2023/05/22 19:42:19;;;;;;;6.35;3.72;;;;;;;19.86;55.72;96515.25;10385733;28;20050;-57
2023/05/22 19:47:38;;;;;;;4.05;3.42;;;;;;;19.86;55.66;96515.25;10392206;28;20042;-57
2023/05/22 19:52:57;;;;;;;5.22;3.42;;;;;;;19.85;55.62;96518.28;10379473;28;20524;-57
2023/05/22 19:58:18;;;;;;;4.28;3.50;;;;;;;19.86;55.66;96509.06;10386251;28;20100;-58
2023/05/22 20:03:38;;;;;;;4.30;3.50;;;;;;;19.85;55.78;96508.25;10389022;28;20506;-58
2023/05/22 20:08:58;;;;;;;6.28;3.60;;;;;;;19.84;55.76;96501.28;10389101;28;20045;-58
2023/05/22 20:14:18;;;;;;;3.88;3.45;;;;;;;19.85;55.72;96497.44;10403147;28;20049;-57
2023/05/22 20:19:37;;;;;;;5.45;4.20;;;;;;;19.84;55.76;96490.47;10388476;28;20390;-58
2023/05/22 20:24:56;;;;;;;5.90;3.60;;;;;;;19.85;55.81;96493.97;10398819;28;20073;-58
2023/05/22 20:30:16;;;;;;;5.88;3.50;;;;;;;19.83;55.89;96491.56;10388357;28;20038;-58
2023/05/22 20:35:36;;;;;;;3.92;3.38;;;;;;;19.85;55.88;96496.66;10399849;28;20038;-57
2023/05/22 20:40:57;;;;;;;4.65;3.50;;;;;;;19.84;55.84;96498.56;10388164;28;20042;-58
2023/05/22 20:46:16;;;;;;;5.72;3.30;;;;;;;19.83;55.89;96494.28;10388048;28;20050;-58
2023/05/22 20:51:36;;;;;;;3.60;3.30;;;;;;;19.82;55.88;96503.53;10376425;28;20054;-58
2023/05/22 20:56:56;;;;;;;5.03;3.40;;;;;;;19.84;55.79;96505.91;10405794;28;20041;-58
2023/05/22 21:02:16;;;;;;;3.40;3.10;;;;;;;19.84;56.01;96511.31;10392867;28;20042;-58
2023/05/22 21:07:36;;;;;;;4.10;3.25;;;;;;;19.82;56.04;96506.22;10379670;28;20050;-58
2023/05/22 21:12:55;;;;;;;4.53;3.65;;;;;;;19.83;55.96;96504.31;10403666;28;20042;-58
2023/05/22 21:18:15;;;;;;;3.40;3.10;;;;;;;19.83;56.08;96507.00;10403912;28;20049;-58
2023/05/22 21:23:35;;;;;;;3.65;3.15;;;;;;;19.82;56.00;96514.34;10414026;28;20034;-58
2023/05/22 21:28:54;;;;;;;4.68;3.20;;;;;;;19.82;56.01;96503.53;10391819;28;20041;-58
2023/05/22 21:34:14;;;;;;;3.47;3.17;;;;;;;19.82;56.01;96498.13;10378793;28;20054;-58
2023/05/22 21:39:33;;;;;;;5.43;3.10;;;;;;;19.82;55.98;96502.75;10402814;28;20042;-58
2023/05/22 21:44:53;;;;;;;3.38;2.90;;;;;;;19.82;56.16;96498.13;10402568;28;20045;-58
2023/05/22 21:50:12;;;;;;;3.50;3.20;;;;;;;19.83;56.04;96504.31;10388751;28;20107;-58
2023/05/22 21:55:31;;;;;;;3.22;2.85;;;;;;;19.81;56.02;96498.44;10402213;28;20049;-58
2023/05/22 22:00:51;;;;;;;3.63;3.17;;;;;;;19.81;56.07;96493.81;10404113;28;20069;-58
2023/05/22 22:06:11;;;;;;;3.58;3.00;;;;;;;19.81;56.05;96490.34;10419567;28;20044;-58
2023/05/22 22:11:30;;;;;;;3.92;3.13;;;;;;;19.81;56.07;96487.63;10409623;28;20037;-58
2023/05/22 22:16:52;;;;;;;3.38;3.08;;;;;;;19.80;55.92;96492.25;10401946;28;20053;-58
2023/05/22 22:22:12;;;;;;;3.22;2.88;;;;;;;19.81;56.08;96496.53;10394647;28;20041;-57
2023/05/22 22:27:32;;;;;;;3.40;3.00;;;;;;;19.81;56.09;96495.75;10411611;28;20033;-58
2023/05/22 22:32:51;;;;;;;4.75;2.92;;;;;;;19.80;56.15;96480.63;10389856;28;20096;-58
2023/05/22 22:38:11;;;;;;;3.17;2.88;;;;;;;19.81;56.07;96479.53;10389344;28;20490;-58
2023/05/22 22:43:30;;;;;;;2.90;2.60;;;;;;;19.79;56.09;96482.56;10403089;28;20053;-58
2023/05/22 22:48:49;;;;;;;3.30;2.78;;;;;;;19.79;56.08;96481.78;10377467;28;20057;-58
2023/05/22 22:54:09;;;;;;;3.10;2.80;;;;;;;19.81;56.11;96474.13;10388216;28;20096;-58
2023/05/22 22:59:28;;;;;;;2.97;2.67;;;;;;;19.79;56.13;96471.75;10407811;28;20487;-57
2023/05/22 23:04:48;;;;;;;3.05;2.67;;;;;;;19.79;56.12;96466.34;10396407;28;20498;-58
2023/05/22 23:10:07;;;;;;;2.97;2.65;;;;;;;19.80;56.01;96464.41;10390808;28;20060;-58
2023/05/22 23:15:27;;;;;;;3.80;2.60;;;;;;;19.79;56.08;96452.81;10390456;28;20037;-58
2023/05/22 23:20:46;;;;;;;4.13;3.20;;;;;;;19.78;56.23;96453.97;10400504;28;20052;-58
2023/05/22 23:26:05;;;;;;;3.08;2.80;;;;;;;19.78;56.07;96453.97;10395692;28;20037;-57
2023/05/22 23:31:28;;;;;;;2.72;2.53;;;;;;;19.78;56.06;96443.16;10406705;28;20048;-58
2023/05/22 23:36:48;;;;;;;2.83;2.55;;;;;;;19.78;56.06;96437.75;10389797;28;20045;-58
2023/05/22 23:42:10;;;;;;;3.13;2.78;;;;;;;19.79;56.19;96447.41;10389534;28;20048;-58
2023/05/22 23:47:30;;;;;;;2.90;2.65;;;;;;;19.78;56.14;96442.34;10397916;28;20048;-58
2023/05/22 23:52:49;;;;;;;3.10;2.70;;;;;;;19.79;56.13;96449.34;10380174;28;20054;-58
2023/05/22 23:58:09;;;;;;;2.83;2.60;;;;;;;19.78;56.13;96434.22;10389080;28;20042;-58
